AAL1849 KJFK-KDFW
Flight info
| Callsign | AAL1849 |
|---|---|
| Flight time | 3h 30m |
| Altitude | 30000 |
| Route | RBV Q430 SAAME J6 HVQ Q68 LAJUG/N0477F320 Q68 LITTR FEWWW BRDJE5 |
| Aircraft | B738/M-SDE2E3FGHIRWXY/LB1 |
Departure
| Time | 2026-05-06 18:56 |
|---|---|
| Airport | John F. Kennedy International Airport (KJFK) |
Arrival
| Time | 2026-05-06 22:27 |
|---|---|
| Airport | Dallas Fort Worth International Airport (KDFW) |
| Time | Latitude | Longitude | Altitude | Speed | Heading |
|---|---|---|---|---|---|
| 2026-05-06 18:15 | 40.64956 | -73.79303 | 24 ft | 0 kts | 331° |
| 2026-05-06 18:41 | 40.64945 | -73.79295 | 23 ft | 3 kts | 331° |
| 2026-05-06 18:41 | 40.64928 | -73.79282 | 26 ft | 3 kts | 331° |
| 2026-05-06 18:42 | 40.64913 | -73.79271 | 24 ft | 3 kts | 342° |
| 2026-05-06 18:42 | 40.64897 | -73.79269 | 26 ft | 3 kts | 35° |
| 2026-05-06 18:42 | 40.64886 | -73.79286 | 25 ft | 3 kts | 61° |
| 2026-05-06 18:42 | 40.64880 | -73.79302 | 25 ft | 0 kts | 61° |
| 2026-05-06 18:45 | 40.64881 | -73.79300 | 28 ft | 2 kts | 61° |
| 2026-05-06 18:45 | 40.64890 | -73.79276 | 24 ft | 3 kts | 62° |
| 2026-05-06 18:46 | 40.64901 | -73.79251 | 25 ft | 4 kts | 61° |
| 2026-05-06 18:46 | 40.64917 | -73.79214 | 24 ft | 6 kts | 60° |
| 2026-05-06 18:46 | 40.64939 | -73.79161 | 24 ft | 8 kts | 60° |
| 2026-05-06 18:46 | 40.64969 | -73.79093 | 25 ft | 10 kts | 60° |
| 2026-05-06 18:47 | 40.65003 | -73.79012 | 23 ft | 10 kts | 61° |
| 2026-05-06 18:47 | 40.65034 | -73.78942 | 23 ft | 6 kts | 50° |
| 2026-05-06 18:47 | 40.65053 | -73.78923 | 23 ft | 3 kts | 28° |
| 2026-05-06 18:47 | 40.65071 | -73.78917 | 22 ft | 2 kts | 10° |
| 2026-05-06 18:48 | 40.65087 | -73.78914 | 23 ft | 2 kts | 7° |
| 2026-05-06 18:48 | 40.65113 | -73.78906 | 23 ft | 7 kts | 26° |
| 2026-05-06 18:48 | 40.65138 | -73.78835 | 24 ft | 10 kts | 84° |
| 2026-05-06 18:48 | 40.65151 | -73.78746 | 25 ft | 10 kts | 70° |
| 2026-05-06 18:49 | 40.65184 | -73.78661 | 27 ft | 11 kts | 61° |
| 2026-05-06 18:49 | 40.65221 | -73.78574 | 28 ft | 13 kts | 61° |
| 2026-05-06 18:49 | 40.65266 | -73.78450 | 24 ft | 16 kts | 78° |
| 2026-05-06 18:49 | 40.65239 | -73.78319 | 26 ft | 15 kts | 120° |
| 2026-05-06 18:50 | 40.65185 | -73.78200 | 25 ft | 16 kts | 121° |
| 2026-05-06 18:50 | 40.65123 | -73.78069 | 22 ft | 17 kts | 123° |
| 2026-05-06 18:50 | 40.65064 | -73.77936 | 21 ft | 17 kts | 120° |
| 2026-05-06 18:50 | 40.65000 | -73.77793 | 18 ft | 19 kts | 121° |
| 2026-05-06 18:51 | 40.64935 | -73.77650 | 20 ft | 18 kts | 121° |
| 2026-05-06 18:51 | 40.64872 | -73.77511 | 19 ft | 17 kts | 120° |
| 2026-05-06 18:51 | 40.64811 | -73.77377 | 22 ft | 17 kts | 121° |
| 2026-05-06 18:51 | 40.64753 | -73.77248 | 22 ft | 17 kts | 121° |
| 2026-05-06 18:52 | 40.64686 | -73.77121 | 22 ft | 17 kts | 138° |
| 2026-05-06 18:52 | 40.64601 | -73.77086 | 21 ft | 10 kts | 165° |
| 2026-05-06 18:52 | 40.64574 | -73.77014 | 19 ft | 10 kts | 73° |
| 2026-05-06 18:52 | 40.64610 | -73.76944 | 17 ft | 10 kts | 81° |
| 2026-05-06 18:53 | 40.64650 | -73.76879 | 17 ft | 8 kts | 42° |
| 2026-05-06 18:53 | 40.64648 | -73.76817 | 17 ft | 6 kts | 117° |
| 2026-05-06 18:53 | 40.64645 | -73.76811 | 18 ft | 0 kts | 117° |
| 2026-05-06 18:54 | 40.64644 | -73.76807 | 18 ft | 2 kts | 118° |
| 2026-05-06 18:54 | 40.64628 | -73.76773 | 18 ft | 6 kts | 122° |
| 2026-05-06 18:55 | 40.64595 | -73.76714 | 18 ft | 9 kts | 146° |
| 2026-05-06 18:55 | 40.64528 | -73.76740 | 19 ft | 20 kts | 211° |
| 2026-05-06 18:55 | 40.64218 | -73.76984 | 22 ft | 83 kts | 211° |
| 2026-05-06 18:55 | 40.63554 | -73.77503 | 26 ft | 136 kts | 209° |
| 2026-05-06 18:56 | 40.62675 | -73.78217 | 395 ft | 152 kts | 211° |
| 2026-05-06 18:56 | 40.61757 | -73.79030 | 955 ft | 166 kts | 212° |
| 2026-05-06 18:56 | 40.60784 | -73.79868 | 1647 ft | 171 kts | 213° |
| 2026-05-06 18:56 | 40.59704 | -73.80698 | 1979 ft | 188 kts | 212° |
| 2026-05-06 18:57 | 40.58494 | -73.81581 | 2198 ft | 211 kts | 211° |
| 2026-05-06 18:57 | 40.57151 | -73.82568 | 2596 ft | 226 kts | 212° |
| 2026-05-06 18:57 | 40.55891 | -73.83794 | 3280 ft | 228 kts | 231° |
| 2026-05-06 18:57 | 40.54990 | -73.85505 | 3993 ft | 229 kts | 236° |
| 2026-05-06 18:58 | 40.54088 | -73.87258 | 4695 ft | 233 kts | 235° |
| 2026-05-06 18:58 | 40.53168 | -73.89026 | 5399 ft | 235 kts | 235° |
| 2026-05-06 18:58 | 40.52235 | -73.90799 | 6118 ft | 238 kts | 235° |
| 2026-05-06 18:58 | 40.51286 | -73.92590 | 6801 ft | 239 kts | 234° |
| 2026-05-06 18:59 | 40.50327 | -73.94386 | 7483 ft | 240 kts | 234° |
| 2026-05-06 18:59 | 40.49366 | -73.96178 | 8222 ft | 240 kts | 235° |
| 2026-05-06 18:59 | 40.48401 | -73.97971 | 8917 ft | 241 kts | 235° |
| 2026-05-06 18:59 | 40.47440 | -73.99749 | 9598 ft | 242 kts | 235° |
| 2026-05-06 19:00 | 40.46448 | -74.01584 | 10219 ft | 246 kts | 235° |
| 2026-05-06 19:00 | 40.45431 | -74.03462 | 10412 ft | 266 kts | 235° |
| 2026-05-06 19:00 | 40.44321 | -74.05508 | 10539 ft | 285 kts | 236° |
| 2026-05-06 19:00 | 40.43525 | -74.06971 | 10618 ft | 298 kts | 235° |
| 2026-05-06 19:01 | 40.41862 | -74.10022 | 10803 ft | 322 kts | 235° |
| 2026-05-06 19:01 | 40.40522 | -74.12470 | 10912 ft | 339 kts | 235° |
| 2026-05-06 19:01 | 40.39124 | -74.15029 | 11121 ft | 350 kts | 235° |
| 2026-05-06 19:01 | 40.37697 | -74.17644 | 11548 ft | 354 kts | 235° |
| 2026-05-06 19:02 | 40.36259 | -74.20276 | 12090 ft | 356 kts | 235° |
| 2026-05-06 19:02 | 40.34815 | -74.22915 | 12601 ft | 358 kts | 235° |
| 2026-05-06 19:02 | 40.33352 | -74.25585 | 13031 ft | 362 kts | 235° |
| 2026-05-06 19:02 | 40.31877 | -74.28275 | 13526 ft | 365 kts | 235° |
| 2026-05-06 19:03 | 40.30393 | -74.30982 | 14037 ft | 366 kts | 236° |
| 2026-05-06 19:03 | 40.28903 | -74.33696 | 14507 ft | 369 kts | 236° |
| 2026-05-06 19:03 | 40.27397 | -74.36436 | 14966 ft | 370 kts | 236° |
| 2026-05-06 19:03 | 40.25890 | -74.39176 | 15414 ft | 373 kts | 236° |
| 2026-05-06 19:04 | 40.24367 | -74.41943 | 15879 ft | 375 kts | 236° |
| 2026-05-06 19:04 | 40.22834 | -74.44726 | 16338 ft | 377 kts | 237° |
| 2026-05-06 19:04 | 40.21497 | -74.47678 | 16742 ft | 378 kts | 246° |
| 2026-05-06 19:04 | 40.20530 | -74.50882 | 17209 ft | 380 kts | 251° |
| 2026-05-06 19:05 | 40.19833 | -74.54223 | 17629 ft | 382 kts | 258° |
| 2026-05-06 19:05 | 40.19502 | -74.57680 | 18049 ft | 385 kts | 263° |
| 2026-05-06 19:05 | 40.19242 | -74.61174 | 18423 ft | 387 kts | 263° |
| 2026-05-06 19:05 | 40.18987 | -74.64676 | 18800 ft | 388 kts | 263° |
| 2026-05-06 19:06 | 40.18726 | -74.68194 | 19175 ft | 389 kts | 263° |
| 2026-05-06 19:06 | 40.18550 | -74.70525 | 19413 ft | 390 kts | 263° |
| 2026-05-06 19:06 | 40.18279 | -74.74068 | 19767 ft | 392 kts | 263° |
| 2026-05-06 19:06 | 40.18003 | -74.77617 | 20119 ft | 393 kts | 263° |
| 2026-05-06 19:07 | 40.17723 | -74.81177 | 20475 ft | 395 kts | 263° |
| 2026-05-06 19:07 | 40.17439 | -74.84755 | 20816 ft | 396 kts | 263° |
| 2026-05-06 19:07 | 40.17152 | -74.88347 | 21157 ft | 398 kts | 263° |
| 2026-05-06 19:07 | 40.16864 | -74.91945 | 21492 ft | 399 kts | 263° |
| 2026-05-06 19:08 | 40.16573 | -74.95559 | 21832 ft | 401 kts | 263° |
| 2026-05-06 19:08 | 40.16280 | -74.99187 | 22172 ft | 401 kts | 263° |
| 2026-05-06 19:08 | 40.15985 | -75.02823 | 22507 ft | 403 kts | 263° |
| 2026-05-06 19:08 | 40.15688 | -75.06467 | 22803 ft | 404 kts | 263° |
| 2026-05-06 19:09 | 40.15389 | -75.10126 | 23117 ft | 406 kts | 263° |
| 2026-05-06 19:09 | 40.15088 | -75.13795 | 23419 ft | 407 kts | 263° |
| 2026-05-06 19:09 | 40.14785 | -75.17479 | 23669 ft | 408 kts | 263° |
| 2026-05-06 19:09 | 40.14480 | -75.21172 | 23917 ft | 408 kts | 263° |
| 2026-05-06 19:10 | 40.14174 | -75.24860 | 24184 ft | 408 kts | 263° |
| 2026-05-06 19:10 | 40.13868 | -75.28543 | 24443 ft | 408 kts | 264° |
| 2026-05-06 19:10 | 40.13559 | -75.32240 | 24686 ft | 409 kts | 264° |
| 2026-05-06 19:10 | 40.13249 | -75.35937 | 24925 ft | 410 kts | 264° |
| 2026-05-06 19:11 | 40.12935 | -75.39643 | 25154 ft | 410 kts | 263° |
| 2026-05-06 19:11 | 40.12615 | -75.43343 | 25420 ft | 410 kts | 264° |
| 2026-05-06 19:11 | 40.12292 | -75.47031 | 25776 ft | 406 kts | 264° |
| 2026-05-06 19:11 | 40.11971 | -75.50692 | 26050 ft | 405 kts | 264° |
| 2026-05-06 19:12 | 40.11650 | -75.54346 | 26268 ft | 405 kts | 264° |
| 2026-05-06 19:12 | 40.11329 | -75.57994 | 26482 ft | 404 kts | 264° |
| 2026-05-06 19:12 | 40.11007 | -75.61642 | 26725 ft | 403 kts | 264° |
| 2026-05-06 19:12 | 40.10686 | -75.65265 | 27016 ft | 401 kts | 264° |
| 2026-05-06 19:13 | 40.10366 | -75.68873 | 27308 ft | 399 kts | 264° |
| 2026-05-06 19:13 | 40.10046 | -75.72457 | 27592 ft | 397 kts | 264° |
| 2026-05-06 19:13 | 40.09727 | -75.76032 | 27868 ft | 395 kts | 264° |
| 2026-05-06 19:13 | 40.09408 | -75.79585 | 28175 ft | 393 kts | 264° |
| 2026-05-06 19:14 | 40.09091 | -75.83113 | 28585 ft | 389 kts | 264° |
| 2026-05-06 19:14 | 40.08778 | -75.86604 | 28966 ft | 385 kts | 264° |
| 2026-05-06 19:14 | 40.08468 | -75.90069 | 29264 ft | 384 kts | 264° |
| 2026-05-06 19:14 | 40.08162 | -75.93486 | 29527 ft | 384 kts | 264° |
| 2026-05-06 19:15 | 40.07848 | -75.96981 | 29816 ft | 382 kts | 263° |
| 2026-05-06 19:15 | 40.07224 | -76.03886 | 29849 ft | 383 kts | 263° |
| 2026-05-06 19:16 | 40.06597 | -76.10770 | 29805 ft | 381 kts | 264° |
| 2026-05-06 19:16 | 40.05969 | -76.17635 | 29861 ft | 381 kts | 263° |
| 2026-05-06 19:17 | 40.05341 | -76.24446 | 29850 ft | 380 kts | 263° |
| 2026-05-06 19:17 | 40.04706 | -76.31285 | 29849 ft | 379 kts | 263° |
| 2026-05-06 19:18 | 40.04069 | -76.38118 | 29841 ft | 380 kts | 263° |
| 2026-05-06 19:18 | 40.03312 | -76.44928 | 29838 ft | 380 kts | 257° |
| 2026-05-06 19:19 | 40.01572 | -76.51451 | 29863 ft | 383 kts | 249° |
| 2026-05-06 19:19 | 39.98906 | -76.57517 | 29847 ft | 386 kts | 244° |
| 2026-05-06 19:20 | 39.96109 | -76.63488 | 29840 ft | 386 kts | 244° |
| 2026-05-06 19:20 | 39.93334 | -76.69460 | 29841 ft | 385 kts | 244° |
| 2026-05-06 19:21 | 39.90557 | -76.75416 | 29841 ft | 385 kts | 244° |
| 2026-05-06 19:21 | 39.87773 | -76.81365 | 29844 ft | 385 kts | 244° |
| 2026-05-06 19:22 | 39.84984 | -76.87317 | 29832 ft | 385 kts | 244° |
| 2026-05-06 19:22 | 39.82189 | -76.93273 | 29858 ft | 386 kts | 244° |
| 2026-05-06 19:23 | 39.79385 | -76.99237 | 29856 ft | 386 kts | 244° |
| 2026-05-06 19:23 | 39.76579 | -77.05194 | 29855 ft | 387 kts | 243° |
| 2026-05-06 19:24 | 39.73769 | -77.11148 | 29848 ft | 386 kts | 244° |
| 2026-05-06 19:24 | 39.70957 | -77.17098 | 29859 ft | 387 kts | 244° |
| 2026-05-06 19:25 | 39.68135 | -77.23055 | 29868 ft | 388 kts | 244° |
| 2026-05-06 19:25 | 39.65305 | -77.29019 | 29853 ft | 388 kts | 244° |
| 2026-05-06 19:26 | 39.62473 | -77.34976 | 29873 ft | 388 kts | 244° |
| 2026-05-06 19:26 | 39.59654 | -77.40900 | 29862 ft | 388 kts | 243° |
| 2026-05-06 19:27 | 39.56816 | -77.46850 | 29808 ft | 388 kts | 243° |
| 2026-05-06 19:27 | 39.53979 | -77.52789 | 29871 ft | 388 kts | 243° |
| 2026-05-06 19:28 | 39.51124 | -77.58757 | 29862 ft | 391 kts | 243° |
| 2026-05-06 19:28 | 39.48255 | -77.64740 | 29866 ft | 392 kts | 243° |
| 2026-05-06 19:29 | 39.45376 | -77.70733 | 29832 ft | 392 kts | 243° |
| 2026-05-06 19:29 | 39.42500 | -77.76711 | 29828 ft | 391 kts | 243° |
| 2026-05-06 19:30 | 39.39624 | -77.82674 | 29826 ft | 390 kts | 243° |
| 2026-05-06 19:30 | 39.36994 | -77.88739 | 29816 ft | 386 kts | 247° |
| 2026-05-06 19:31 | 39.34559 | -77.94914 | 29831 ft | 386 kts | 247° |
| 2026-05-06 19:31 | 39.30888 | -78.04193 | 29830 ft | 387 kts | 247° |
| 2026-05-06 19:32 | 39.28425 | -78.10374 | 29830 ft | 387 kts | 247° |
| 2026-05-06 19:32 | 39.25959 | -78.16545 | 29832 ft | 387 kts | 247° |
| 2026-05-06 19:33 | 39.23489 | -78.22712 | 29836 ft | 387 kts | 247° |
| 2026-05-06 19:33 | 39.21012 | -78.28886 | 29779 ft | 388 kts | 247° |
| 2026-05-06 19:34 | 39.18529 | -78.35062 | 29816 ft | 389 kts | 247° |
| 2026-05-06 19:34 | 39.16036 | -78.41248 | 29809 ft | 388 kts | 247° |
| 2026-05-06 19:35 | 39.13554 | -78.47396 | 29830 ft | 391 kts | 247° |
| 2026-05-06 19:35 | 39.11034 | -78.53628 | 29823 ft | 393 kts | 247° |
| 2026-05-06 19:36 | 39.08507 | -78.59861 | 29818 ft | 393 kts | 247° |
| 2026-05-06 19:36 | 39.05972 | -78.66103 | 29824 ft | 393 kts | 247° |
| 2026-05-06 19:37 | 39.03435 | -78.72335 | 29823 ft | 393 kts | 247° |
| 2026-05-06 19:37 | 39.01334 | -78.77490 | 29811 ft | 393 kts | 247° |
| 2026-05-06 19:38 | 38.98360 | -78.84772 | 29825 ft | 393 kts | 246° |
| 2026-05-06 19:38 | 38.95815 | -78.90986 | 29824 ft | 393 kts | 246° |
| 2026-05-06 19:39 | 38.93270 | -78.97188 | 29827 ft | 393 kts | 246° |
| 2026-05-06 19:39 | 38.90719 | -79.03399 | 29827 ft | 394 kts | 246° |
| 2026-05-06 19:40 | 38.88159 | -79.09619 | 29817 ft | 393 kts | 246° |
| 2026-05-06 19:40 | 38.85602 | -79.15820 | 29829 ft | 393 kts | 246° |
| 2026-05-06 19:41 | 38.83518 | -79.22228 | 29816 ft | 388 kts | 257° |
| 2026-05-06 19:41 | 38.82318 | -79.28954 | 29837 ft | 387 kts | 258° |
| 2026-05-06 19:42 | 38.81125 | -79.35685 | 29835 ft | 387 kts | 258° |
| 2026-05-06 19:42 | 38.79919 | -79.42408 | 29836 ft | 387 kts | 258° |
| 2026-05-06 19:43 | 38.78712 | -79.49085 | 29846 ft | 386 kts | 258° |
| 2026-05-06 19:43 | 38.77495 | -79.55790 | 29843 ft | 386 kts | 258° |
| 2026-05-06 19:44 | 38.76275 | -79.62488 | 29854 ft | 386 kts | 258° |
| 2026-05-06 19:44 | 38.75048 | -79.69205 | 29891 ft | 387 kts | 258° |
| 2026-05-06 19:45 | 38.73820 | -79.75903 | 29900 ft | 386 kts | 258° |
| 2026-05-06 19:45 | 38.72591 | -79.82582 | 29933 ft | 385 kts | 258° |
| 2026-05-06 19:46 | 38.71359 | -79.89259 | 29915 ft | 385 kts | 258° |
| 2026-05-06 19:46 | 38.70126 | -79.95912 | 29899 ft | 384 kts | 258° |
| 2026-05-06 19:47 | 38.68892 | -80.02551 | 29872 ft | 382 kts | 258° |
| 2026-05-06 19:47 | 38.67660 | -80.09159 | 29884 ft | 382 kts | 258° |
| 2026-05-06 19:48 | 38.66424 | -80.15767 | 29881 ft | 382 kts | 258° |
| 2026-05-06 19:48 | 38.65182 | -80.22380 | 29892 ft | 382 kts | 258° |
| 2026-05-06 19:49 | 38.63937 | -80.28990 | 29888 ft | 382 kts | 258° |
| 2026-05-06 19:49 | 38.62688 | -80.35603 | 29888 ft | 382 kts | 258° |
| 2026-05-06 19:50 | 38.61438 | -80.42204 | 29880 ft | 381 kts | 258° |
| 2026-05-06 19:50 | 38.60187 | -80.48786 | 29893 ft | 381 kts | 258° |
| 2026-05-06 19:51 | 38.58935 | -80.55353 | 29897 ft | 380 kts | 258° |
| 2026-05-06 19:51 | 38.57681 | -80.61905 | 29900 ft | 379 kts | 257° |
| 2026-05-06 19:52 | 38.56427 | -80.68442 | 29889 ft | 378 kts | 257° |
| 2026-05-06 19:52 | 38.55383 | -80.73865 | 29896 ft | 378 kts | 257° |
| 2026-05-06 19:53 | 38.53919 | -80.81448 | 29899 ft | 379 kts | 257° |
| 2026-05-06 19:53 | 38.52655 | -80.87970 | 29898 ft | 378 kts | 257° |
| 2026-05-06 19:54 | 38.51391 | -80.94476 | 29915 ft | 377 kts | 257° |
| 2026-05-06 19:54 | 38.50330 | -80.99914 | 29911 ft | 376 kts | 257° |
| 2026-05-06 19:55 | 38.49071 | -81.06350 | 29910 ft | 376 kts | 257° |
| 2026-05-06 19:55 | 38.47803 | -81.12817 | 29917 ft | 376 kts | 257° |
| 2026-05-06 19:56 | 38.46530 | -81.19291 | 29911 ft | 377 kts | 257° |
| 2026-05-06 19:56 | 38.45250 | -81.25774 | 29923 ft | 377 kts | 257° |
| 2026-05-06 19:57 | 38.43967 | -81.32255 | 29928 ft | 376 kts | 257° |
| 2026-05-06 19:57 | 38.42685 | -81.38708 | 29929 ft | 375 kts | 256° |
| 2026-05-06 19:58 | 38.41402 | -81.45148 | 29922 ft | 374 kts | 256° |
| 2026-05-06 19:58 | 38.40119 | -81.51566 | 29924 ft | 373 kts | 256° |
| 2026-05-06 19:59 | 38.38834 | -81.57978 | 29946 ft | 373 kts | 256° |
| 2026-05-06 19:59 | 38.37548 | -81.64375 | 29962 ft | 373 kts | 256° |
| 2026-05-06 20:00 | 38.36259 | -81.70775 | 29934 ft | 373 kts | 256° |
| 2026-05-06 20:00 | 38.34950 | -81.77155 | 29933 ft | 371 kts | 253° |
| 2026-05-06 20:01 | 38.33252 | -81.83312 | 29943 ft | 371 kts | 251° |
| 2026-05-06 20:01 | 38.31497 | -81.89499 | 29941 ft | 371 kts | 251° |
| 2026-05-06 20:02 | 38.29749 | -81.95678 | 29938 ft | 371 kts | 251° |
| 2026-05-06 20:02 | 38.28004 | -82.01860 | 29945 ft | 371 kts | 251° |
| 2026-05-06 20:03 | 38.26253 | -82.08049 | 29931 ft | 372 kts | 251° |
| 2026-05-06 20:03 | 38.24500 | -82.14233 | 29933 ft | 372 kts | 251° |
| 2026-05-06 20:04 | 38.22743 | -82.20418 | 29937 ft | 371 kts | 251° |
| 2026-05-06 20:04 | 38.20987 | -82.26587 | 29934 ft | 371 kts | 251° |
| 2026-05-06 20:05 | 38.19225 | -82.32758 | 29935 ft | 371 kts | 251° |
| 2026-05-06 20:05 | 38.17464 | -82.38927 | 29936 ft | 372 kts | 251° |
| 2026-05-06 20:06 | 38.15696 | -82.45118 | 29953 ft | 373 kts | 251° |
| 2026-05-06 20:06 | 38.13922 | -82.51317 | 29960 ft | 373 kts | 251° |
| 2026-05-06 20:07 | 38.12148 | -82.57505 | 29955 ft | 372 kts | 251° |
| 2026-05-06 20:07 | 38.10375 | -82.63682 | 29942 ft | 372 kts | 251° |
| 2026-05-06 20:08 | 38.08600 | -82.69845 | 29946 ft | 372 kts | 251° |
| 2026-05-06 20:08 | 38.06819 | -82.76001 | 29944 ft | 371 kts | 251° |
| 2026-05-06 20:09 | 38.05036 | -82.82152 | 29947 ft | 371 kts | 251° |
| 2026-05-06 20:09 | 38.03256 | -82.88300 | 29943 ft | 371 kts | 251° |
| 2026-05-06 20:10 | 38.01472 | -82.94433 | 29944 ft | 370 kts | 251° |
| 2026-05-06 20:10 | 37.99685 | -83.00554 | 29948 ft | 370 kts | 251° |
| 2026-05-06 20:11 | 37.97897 | -83.06668 | 29897 ft | 370 kts | 251° |
| 2026-05-06 20:11 | 37.96115 | -83.12750 | 29931 ft | 371 kts | 251° |
| 2026-05-06 20:12 | 37.94315 | -83.18888 | 29954 ft | 373 kts | 251° |
| 2026-05-06 20:12 | 37.92508 | -83.25034 | 29958 ft | 373 kts | 251° |
| 2026-05-06 20:13 | 37.90691 | -83.31183 | 29951 ft | 373 kts | 251° |
| 2026-05-06 20:13 | 37.88878 | -83.37321 | 29957 ft | 372 kts | 251° |
| 2026-05-06 20:14 | 37.87065 | -83.43462 | 29960 ft | 372 kts | 251° |
| 2026-05-06 20:14 | 37.85247 | -83.49589 | 29959 ft | 372 kts | 250° |
| 2026-05-06 20:15 | 37.83423 | -83.55727 | 29957 ft | 372 kts | 250° |
| 2026-05-06 20:15 | 37.81600 | -83.61837 | 29949 ft | 370 kts | 250° |
| 2026-05-06 20:16 | 37.79784 | -83.67910 | 29949 ft | 369 kts | 250° |
| 2026-05-06 20:16 | 37.77970 | -83.73965 | 29922 ft | 368 kts | 250° |
| 2026-05-06 20:17 | 37.76158 | -83.80007 | 29957 ft | 369 kts | 251° |
| 2026-05-06 20:17 | 37.74333 | -83.86075 | 29960 ft | 370 kts | 250° |
| 2026-05-06 20:18 | 37.72503 | -83.92147 | 29983 ft | 370 kts | 251° |
| 2026-05-06 20:18 | 37.70670 | -83.98216 | 29977 ft | 370 kts | 250° |
| 2026-05-06 20:19 | 37.68835 | -84.04281 | 29985 ft | 370 kts | 250° |
| 2026-05-06 20:19 | 37.66995 | -84.10348 | 29997 ft | 370 kts | 250° |
| 2026-05-06 20:20 | 37.65166 | -84.16364 | 30008 ft | 369 kts | 250° |
| 2026-05-06 20:20 | 37.63314 | -84.22407 | 30018 ft | 369 kts | 250° |
| 2026-05-06 20:21 | 37.61456 | -84.28453 | 30021 ft | 370 kts | 250° |
| 2026-05-06 20:21 | 37.59598 | -84.34491 | 30024 ft | 369 kts | 250° |
| 2026-05-06 20:22 | 37.57743 | -84.40510 | 29937 ft | 368 kts | 250° |
| 2026-05-06 20:22 | 37.55889 | -84.46512 | 29981 ft | 368 kts | 250° |
| 2026-05-06 20:23 | 37.54029 | -84.52523 | 29999 ft | 368 kts | 250° |
| 2026-05-06 20:23 | 37.52164 | -84.58533 | 30007 ft | 369 kts | 250° |
| 2026-05-06 20:24 | 37.50294 | -84.64555 | 30015 ft | 369 kts | 250° |
| 2026-05-06 20:24 | 37.48418 | -84.70572 | 30016 ft | 370 kts | 250° |
| 2026-05-06 20:25 | 37.46552 | -84.76603 | 30013 ft | 370 kts | 250° |
| 2026-05-06 20:25 | 37.44698 | -84.82631 | 29998 ft | 369 kts | 250° |
| 2026-05-06 20:26 | 37.42840 | -84.88655 | 29990 ft | 369 kts | 250° |
| 2026-05-06 20:26 | 37.40976 | -84.94679 | 29988 ft | 369 kts | 250° |
| 2026-05-06 20:27 | 37.39111 | -85.00692 | 30007 ft | 369 kts | 250° |
| 2026-05-06 20:27 | 37.37231 | -85.06699 | 29978 ft | 369 kts | 249° |
| 2026-05-06 20:28 | 37.35352 | -85.12658 | 30025 ft | 369 kts | 249° |
| 2026-05-06 20:28 | 37.33454 | -85.18664 | 30042 ft | 370 kts | 249° |
| 2026-05-06 20:29 | 37.31551 | -85.24679 | 30051 ft | 371 kts | 249° |
| 2026-05-06 20:29 | 37.29643 | -85.30701 | 30048 ft | 371 kts | 249° |
| 2026-05-06 20:30 | 37.26772 | -85.39732 | 29976 ft | 371 kts | 249° |
| 2026-05-06 20:31 | 37.24859 | -85.45741 | 29983 ft | 371 kts | 249° |
| 2026-05-06 20:31 | 37.22938 | -85.51761 | 29982 ft | 371 kts | 249° |
| 2026-05-06 20:32 | 37.21016 | -85.57773 | 29988 ft | 371 kts | 249° |
| 2026-05-06 20:32 | 37.19087 | -85.63791 | 29987 ft | 372 kts | 249° |
| 2026-05-06 20:33 | 37.17157 | -85.69799 | 29991 ft | 372 kts | 249° |
| 2026-05-06 20:33 | 37.15223 | -85.75810 | 29970 ft | 372 kts | 249° |
| 2026-05-06 20:34 | 37.13289 | -85.81819 | 29998 ft | 372 kts | 249° |
| 2026-05-06 20:34 | 37.11341 | -85.87840 | 30004 ft | 374 kts | 248° |
| 2026-05-06 20:35 | 37.09398 | -85.93842 | 29997 ft | 374 kts | 248° |
| 2026-05-06 20:35 | 37.07437 | -85.99881 | 30001 ft | 375 kts | 248° |
| 2026-05-06 20:36 | 37.05473 | -86.05920 | 30002 ft | 375 kts | 248° |
| 2026-05-06 20:36 | 37.03504 | -86.11959 | 30004 ft | 375 kts | 248° |
| 2026-05-06 20:37 | 37.01533 | -86.17994 | 30012 ft | 375 kts | 248° |
| 2026-05-06 20:37 | 36.99557 | -86.24037 | 29991 ft | 375 kts | 248° |
| 2026-05-06 20:38 | 36.97579 | -86.30070 | 30006 ft | 375 kts | 248° |
| 2026-05-06 20:38 | 36.95596 | -86.36108 | 30014 ft | 375 kts | 248° |
| 2026-05-06 20:39 | 36.93610 | -86.42142 | 29949 ft | 375 kts | 248° |
| 2026-05-06 20:39 | 36.91563 | -86.48157 | 30007 ft | 378 kts | 246° |
| 2026-05-06 20:40 | 36.89390 | -86.54160 | 30008 ft | 380 kts | 246° |
| 2026-05-06 20:40 | 36.87203 | -86.60186 | 30014 ft | 381 kts | 246° |
| 2026-05-06 20:41 | 36.85023 | -86.66216 | 30011 ft | 381 kts | 246° |
| 2026-05-06 20:41 | 36.82851 | -86.72229 | 30013 ft | 380 kts | 246° |
| 2026-05-06 20:42 | 36.80680 | -86.78231 | 30015 ft | 379 kts | 246° |
| 2026-05-06 20:42 | 36.78877 | -86.83208 | 30018 ft | 379 kts | 246° |
| 2026-05-06 20:43 | 36.76705 | -86.89196 | 30014 ft | 379 kts | 246° |
| 2026-05-06 20:43 | 36.74178 | -86.96145 | 30024 ft | 378 kts | 246° |
| 2026-05-06 20:44 | 36.72355 | -87.01148 | 30018 ft | 378 kts | 246° |
| 2026-05-06 20:44 | 36.71263 | -87.04142 | 30145 ft | 380 kts | 246° |
| 2026-05-06 20:44 | 36.70168 | -87.07142 | 30234 ft | 381 kts | 246° |
| 2026-05-06 20:44 | 36.69066 | -87.10158 | 30353 ft | 382 kts | 246° |
| 2026-05-06 20:45 | 36.67970 | -87.13157 | 30664 ft | 379 kts | 246° |
| 2026-05-06 20:45 | 36.66882 | -87.16127 | 31037 ft | 374 kts | 246° |
| 2026-05-06 20:45 | 36.65805 | -87.19061 | 31412 ft | 371 kts | 247° |
| 2026-05-06 20:45 | 36.64751 | -87.21934 | 31719 ft | 369 kts | 247° |
| 2026-05-06 20:46 | 36.63690 | -87.24820 | 32009 ft | 366 kts | 247° |
| 2026-05-06 20:46 | 36.61568 | -87.30605 | 32028 ft | 368 kts | 247° |
| 2026-05-06 20:47 | 36.59438 | -87.36374 | 32029 ft | 367 kts | 247° |
| 2026-05-06 20:47 | 36.57312 | -87.42134 | 32039 ft | 366 kts | 247° |
| 2026-05-06 20:48 | 36.55184 | -87.47893 | 32038 ft | 366 kts | 247° |
| 2026-05-06 20:48 | 36.53056 | -87.53646 | 32028 ft | 366 kts | 247° |
| 2026-05-06 20:49 | 36.50919 | -87.59396 | 32042 ft | 367 kts | 247° |
| 2026-05-06 20:49 | 36.48779 | -87.65160 | 32044 ft | 367 kts | 247° |
| 2026-05-06 20:50 | 36.46636 | -87.70924 | 32029 ft | 367 kts | 247° |
| 2026-05-06 20:50 | 36.44483 | -87.76700 | 32045 ft | 369 kts | 246° |
| 2026-05-06 20:51 | 36.42318 | -87.82495 | 32038 ft | 370 kts | 246° |
| 2026-05-06 20:51 | 36.40147 | -87.88295 | 32049 ft | 371 kts | 246° |
| 2026-05-06 20:52 | 36.37970 | -87.94101 | 32043 ft | 371 kts | 246° |
| 2026-05-06 20:52 | 36.35791 | -87.99904 | 32044 ft | 371 kts | 246° |
| 2026-05-06 20:53 | 36.33608 | -88.05705 | 32049 ft | 371 kts | 246° |
| 2026-05-06 20:53 | 36.31423 | -88.11497 | 32058 ft | 371 kts | 246° |
| 2026-05-06 20:54 | 36.29238 | -88.17279 | 32043 ft | 370 kts | 246° |
| 2026-05-06 20:54 | 36.27059 | -88.23047 | 32047 ft | 369 kts | 246° |
| 2026-05-06 20:55 | 36.24879 | -88.28797 | 32055 ft | 368 kts | 246° |
| 2026-05-06 20:55 | 36.22697 | -88.34538 | 32031 ft | 368 kts | 246° |
| 2026-05-06 20:56 | 36.20509 | -88.40291 | 32032 ft | 370 kts | 246° |
| 2026-05-06 20:56 | 36.18313 | -88.46055 | 32040 ft | 371 kts | 246° |
| 2026-05-06 20:57 | 36.16106 | -88.51838 | 32019 ft | 372 kts | 246° |
| 2026-05-06 20:57 | 36.13903 | -88.57583 | 32021 ft | 372 kts | 246° |
| 2026-05-06 20:58 | 36.11683 | -88.63375 | 32040 ft | 372 kts | 246° |
| 2026-05-06 20:58 | 36.09452 | -88.69151 | 32057 ft | 372 kts | 246° |
| 2026-05-06 20:59 | 36.07228 | -88.74929 | 32056 ft | 372 kts | 246° |
| 2026-05-06 20:59 | 36.04998 | -88.80706 | 32068 ft | 372 kts | 246° |
| 2026-05-06 21:00 | 36.02762 | -88.86479 | 32089 ft | 372 kts | 246° |
| 2026-05-06 21:00 | 36.00535 | -88.92236 | 32089 ft | 371 kts | 246° |
| 2026-05-06 21:01 | 35.98303 | -88.97994 | 32091 ft | 371 kts | 246° |
| 2026-05-06 21:01 | 35.96078 | -89.03742 | 32090 ft | 371 kts | 246° |
| 2026-05-06 21:02 | 35.93841 | -89.09478 | 32080 ft | 371 kts | 246° |
| 2026-05-06 21:02 | 35.91609 | -89.15215 | 32041 ft | 371 kts | 246° |
| 2026-05-06 21:03 | 35.89367 | -89.20940 | 32076 ft | 370 kts | 245° |
| 2026-05-06 21:03 | 35.87123 | -89.26651 | 32091 ft | 369 kts | 246° |
| 2026-05-06 21:04 | 35.84898 | -89.32311 | 32074 ft | 365 kts | 246° |
| 2026-05-06 21:04 | 35.82715 | -89.37900 | 32075 ft | 363 kts | 246° |
| 2026-05-06 21:05 | 35.80515 | -89.43486 | 32059 ft | 362 kts | 245° |
| 2026-05-06 21:05 | 35.78325 | -89.49060 | 32077 ft | 361 kts | 246° |
| 2026-05-06 21:06 | 35.76130 | -89.54630 | 32077 ft | 362 kts | 246° |
| 2026-05-06 21:06 | 35.73913 | -89.60227 | 32080 ft | 367 kts | 245° |
| 2026-05-06 21:07 | 35.71644 | -89.65936 | 32060 ft | 374 kts | 246° |
| 2026-05-06 21:07 | 35.69368 | -89.71672 | 32091 ft | 372 kts | 245° |
| 2026-05-06 21:08 | 35.67095 | -89.77394 | 32071 ft | 372 kts | 245° |
| 2026-05-06 21:08 | 35.64824 | -89.83114 | 32047 ft | 372 kts | 245° |
| 2026-05-06 21:09 | 35.62555 | -89.88819 | 32039 ft | 372 kts | 245° |
| 2026-05-06 21:09 | 35.60269 | -89.94513 | 32043 ft | 372 kts | 245° |
| 2026-05-06 21:10 | 35.57988 | -90.00216 | 32079 ft | 371 kts | 245° |
| 2026-05-06 21:10 | 35.55713 | -90.05889 | 32072 ft | 370 kts | 245° |
| 2026-05-06 21:11 | 35.53449 | -90.11539 | 32066 ft | 368 kts | 245° |
| 2026-05-06 21:11 | 35.51177 | -90.17163 | 32065 ft | 367 kts | 245° |
| 2026-05-06 21:12 | 35.48918 | -90.22778 | 32064 ft | 367 kts | 245° |
| 2026-05-06 21:12 | 35.46648 | -90.28409 | 32064 ft | 369 kts | 245° |
| 2026-05-06 21:13 | 35.44359 | -90.34068 | 32061 ft | 371 kts | 245° |
| 2026-05-06 21:13 | 35.42073 | -90.39702 | 32060 ft | 372 kts | 245° |
| 2026-05-06 21:14 | 35.39773 | -90.45371 | 32048 ft | 371 kts | 245° |
| 2026-05-06 21:14 | 35.37477 | -90.51027 | 32065 ft | 370 kts | 245° |
| 2026-05-06 21:15 | 35.35174 | -90.56664 | 32044 ft | 370 kts | 245° |
| 2026-05-06 21:15 | 35.32877 | -90.62293 | 32055 ft | 369 kts | 245° |
| 2026-05-06 21:16 | 35.30580 | -90.67917 | 32063 ft | 369 kts | 245° |
| 2026-05-06 21:16 | 35.28291 | -90.73533 | 32054 ft | 369 kts | 245° |
| 2026-05-06 21:17 | 35.25985 | -90.79140 | 32070 ft | 368 kts | 245° |
| 2026-05-06 21:17 | 35.23701 | -90.84712 | 32026 ft | 366 kts | 245° |
| 2026-05-06 21:18 | 35.21406 | -90.90295 | 32053 ft | 368 kts | 245° |
| 2026-05-06 21:18 | 35.19083 | -90.95909 | 32064 ft | 371 kts | 245° |
| 2026-05-06 21:19 | 35.16755 | -91.01552 | 32068 ft | 372 kts | 245° |
| 2026-05-06 21:19 | 35.14416 | -91.07213 | 32073 ft | 373 kts | 245° |
| 2026-05-06 21:20 | 35.12069 | -91.12874 | 32061 ft | 374 kts | 245° |
| 2026-05-06 21:20 | 35.09732 | -91.18511 | 32061 ft | 366 kts | 245° |
| 2026-05-06 21:21 | 35.07453 | -91.23993 | 32071 ft | 361 kts | 244° |
| 2026-05-06 21:21 | 35.05171 | -91.29471 | 32070 ft | 362 kts | 244° |
| 2026-05-06 21:22 | 35.02885 | -91.34951 | 32068 ft | 363 kts | 244° |
| 2026-05-06 21:22 | 35.00595 | -91.40434 | 32071 ft | 363 kts | 244° |
| 2026-05-06 21:23 | 34.98301 | -91.45919 | 32012 ft | 363 kts | 244° |
| 2026-05-06 21:23 | 34.95984 | -91.51447 | 32064 ft | 370 kts | 244° |
| 2026-05-06 21:24 | 34.93637 | -91.57040 | 32067 ft | 369 kts | 244° |
| 2026-05-06 21:24 | 34.91313 | -91.62566 | 32051 ft | 365 kts | 244° |
| 2026-05-06 21:25 | 34.89006 | -91.68043 | 32052 ft | 362 kts | 244° |
| 2026-05-06 21:25 | 34.86704 | -91.73500 | 32048 ft | 362 kts | 244° |
| 2026-05-06 21:26 | 34.84398 | -91.78959 | 32049 ft | 363 kts | 244° |
| 2026-05-06 21:26 | 34.82099 | -91.84392 | 32045 ft | 364 kts | 244° |
| 2026-05-06 21:27 | 34.79775 | -91.89876 | 32032 ft | 365 kts | 244° |
| 2026-05-06 21:27 | 34.77441 | -91.95376 | 32032 ft | 366 kts | 244° |
| 2026-05-06 21:28 | 34.75100 | -92.00880 | 32034 ft | 366 kts | 244° |
| 2026-05-06 21:28 | 34.72758 | -92.06382 | 32031 ft | 367 kts | 244° |
| 2026-05-06 21:29 | 34.70410 | -92.11891 | 32017 ft | 368 kts | 243° |
| 2026-05-06 21:29 | 34.68058 | -92.17450 | 32028 ft | 371 kts | 245° |
| 2026-05-06 21:30 | 34.66568 | -92.22356 | 32031 ft | 374 kts | 251° |
| 2026-05-06 21:30 | 34.64950 | -92.28372 | 32030 ft | 375 kts | 251° |
| 2026-05-06 21:31 | 34.63321 | -92.34406 | 32041 ft | 376 kts | 251° |
| 2026-05-06 21:31 | 34.61678 | -92.40442 | 32022 ft | 376 kts | 250° |
| 2026-05-06 21:32 | 34.60032 | -92.46460 | 32027 ft | 375 kts | 250° |
| 2026-05-06 21:32 | 34.57565 | -92.55450 | 32034 ft | 374 kts | 250° |
| 2026-05-06 21:33 | 34.55914 | -92.61432 | 32018 ft | 374 kts | 250° |
| 2026-05-06 21:33 | 34.54266 | -92.67405 | 32066 ft | 373 kts | 250° |
| 2026-05-06 21:34 | 34.52619 | -92.73358 | 32038 ft | 371 kts | 250° |
| 2026-05-06 21:34 | 34.50980 | -92.79283 | 32057 ft | 370 kts | 250° |
| 2026-05-06 21:35 | 34.49350 | -92.85147 | 32052 ft | 370 kts | 250° |
| 2026-05-06 21:35 | 34.47710 | -92.91049 | 32052 ft | 369 kts | 250° |
| 2026-05-06 21:36 | 34.46070 | -92.96946 | 32050 ft | 369 kts | 250° |
| 2026-05-06 21:36 | 34.44413 | -93.02836 | 32020 ft | 370 kts | 250° |
| 2026-05-06 21:37 | 34.42768 | -93.08727 | 32013 ft | 371 kts | 250° |
| 2026-05-06 21:37 | 34.41097 | -93.14642 | 32037 ft | 372 kts | 250° |
| 2026-05-06 21:38 | 34.39425 | -93.20594 | 32022 ft | 374 kts | 250° |
| 2026-05-06 21:38 | 34.37743 | -93.26575 | 32028 ft | 376 kts | 250° |
| 2026-05-06 21:39 | 34.36057 | -93.32563 | 32031 ft | 376 kts | 250° |
| 2026-05-06 21:39 | 34.34368 | -93.38543 | 32031 ft | 375 kts | 250° |
| 2026-05-06 21:40 | 34.32673 | -93.44515 | 32005 ft | 375 kts | 250° |
| 2026-05-06 21:40 | 34.30976 | -93.50481 | 32014 ft | 375 kts | 249° |
| 2026-05-06 21:41 | 34.29277 | -93.56426 | 32014 ft | 374 kts | 250° |
| 2026-05-06 21:41 | 34.27583 | -93.62378 | 32015 ft | 374 kts | 250° |
| 2026-05-06 21:42 | 34.25891 | -93.68283 | 32007 ft | 375 kts | 250° |
| 2026-05-06 21:42 | 34.24192 | -93.74230 | 32026 ft | 374 kts | 250° |
| 2026-05-06 21:43 | 34.22470 | -93.80206 | 32027 ft | 374 kts | 250° |
| 2026-05-06 21:43 | 34.20777 | -93.86097 | 32000 ft | 373 kts | 249° |
| 2026-05-06 21:44 | 34.19065 | -93.91994 | 32014 ft | 371 kts | 249° |
| 2026-05-06 21:44 | 34.17274 | -93.97835 | 31987 ft | 371 kts | 248° |
| 2026-05-06 21:45 | 34.15481 | -94.03662 | 32000 ft | 370 kts | 248° |
| 2026-05-06 21:45 | 34.13685 | -94.09498 | 32004 ft | 373 kts | 248° |
| 2026-05-06 21:46 | 34.11853 | -94.15424 | 31990 ft | 380 kts | 249° |
| 2026-05-06 21:46 | 34.10006 | -94.21421 | 32000 ft | 382 kts | 248° |
| 2026-05-06 21:47 | 34.08156 | -94.27396 | 32014 ft | 379 kts | 248° |
| 2026-05-06 21:47 | 34.06317 | -94.33345 | 32018 ft | 378 kts | 248° |
| 2026-05-06 21:48 | 34.04491 | -94.39273 | 32020 ft | 377 kts | 248° |
| 2026-05-06 21:48 | 34.02655 | -94.45184 | 32012 ft | 376 kts | 248° |
| 2026-05-06 21:49 | 34.00830 | -94.51034 | 32007 ft | 375 kts | 248° |
| 2026-05-06 21:49 | 33.98978 | -94.56958 | 31992 ft | 375 kts | 248° |
| 2026-05-06 21:50 | 33.97156 | -94.62791 | 32005 ft | 373 kts | 248° |
| 2026-05-06 21:50 | 33.95312 | -94.68673 | 31992 ft | 372 kts | 248° |
| 2026-05-06 21:51 | 33.93480 | -94.74504 | 31965 ft | 372 kts | 248° |
| 2026-05-06 21:51 | 33.91666 | -94.80285 | 31972 ft | 372 kts | 248° |
| 2026-05-06 21:52 | 33.89841 | -94.86101 | 31972 ft | 371 kts | 248° |
| 2026-05-06 21:52 | 33.88004 | -94.91915 | 31962 ft | 372 kts | 248° |
| 2026-05-06 21:53 | 33.86167 | -94.97728 | 31980 ft | 371 kts | 248° |
| 2026-05-06 21:53 | 33.84324 | -95.03541 | 31964 ft | 372 kts | 248° |
| 2026-05-06 21:54 | 33.82478 | -95.09380 | 31970 ft | 374 kts | 248° |
| 2026-05-06 21:54 | 33.80613 | -95.15239 | 31985 ft | 376 kts | 248° |
| 2026-05-06 21:55 | 33.78748 | -95.21110 | 31985 ft | 377 kts | 248° |
| 2026-05-06 21:55 | 33.76865 | -95.26986 | 31990 ft | 377 kts | 248° |
| 2026-05-06 21:56 | 33.74985 | -95.32876 | 31985 ft | 378 kts | 248° |
| 2026-05-06 21:56 | 33.73084 | -95.38752 | 32025 ft | 377 kts | 247° |
| 2026-05-06 21:57 | 33.71190 | -95.44632 | 32025 ft | 377 kts | 247° |
| 2026-05-06 21:57 | 33.69287 | -95.50499 | 32030 ft | 377 kts | 247° |
| 2026-05-06 21:58 | 33.67382 | -95.56373 | 32002 ft | 377 kts | 247° |
| 2026-05-06 21:58 | 33.65483 | -95.62234 | 32006 ft | 377 kts | 247° |
| 2026-05-06 21:59 | 33.64543 | -95.65124 | 31685 ft | 379 kts | 247° |
| 2026-05-06 21:59 | 33.63577 | -95.68104 | 30985 ft | 376 kts | 247° |
| 2026-05-06 21:59 | 33.62642 | -95.70977 | 30497 ft | 370 kts | 247° |
| 2026-05-06 21:59 | 33.61725 | -95.73789 | 30355 ft | 356 kts | 247° |
| 2026-05-06 22:00 | 33.60842 | -95.76490 | 30232 ft | 341 kts | 247° |
| 2026-05-06 22:00 | 33.59986 | -95.79109 | 30096 ft | 335 kts | 247° |
| 2026-05-06 22:00 | 33.59130 | -95.81733 | 29729 ft | 346 kts | 247° |
| 2026-05-06 22:00 | 33.58228 | -95.84481 | 29287 ft | 360 kts | 247° |
| 2026-05-06 22:01 | 33.57305 | -95.87287 | 28787 ft | 360 kts | 247° |
| 2026-05-06 22:01 | 33.56395 | -95.90059 | 28288 ft | 355 kts | 247° |
| 2026-05-06 22:01 | 33.55503 | -95.92785 | 27823 ft | 348 kts | 248° |
| 2026-05-06 22:01 | 33.54623 | -95.95476 | 27367 ft | 345 kts | 248° |
| 2026-05-06 22:02 | 33.53743 | -95.98152 | 26880 ft | 345 kts | 248° |
| 2026-05-06 22:02 | 33.52865 | -96.00825 | 26447 ft | 345 kts | 248° |
| 2026-05-06 22:02 | 33.51987 | -96.03496 | 26007 ft | 345 kts | 248° |
| 2026-05-06 22:02 | 33.51108 | -96.06169 | 25561 ft | 345 kts | 248° |
| 2026-05-06 22:03 | 33.50226 | -96.08845 | 25117 ft | 345 kts | 248° |
| 2026-05-06 22:03 | 33.49345 | -96.11519 | 24651 ft | 343 kts | 248° |
| 2026-05-06 22:03 | 33.48477 | -96.14151 | 24188 ft | 337 kts | 248° |
| 2026-05-06 22:03 | 33.47620 | -96.16746 | 23737 ft | 333 kts | 248° |
| 2026-05-06 22:04 | 33.46772 | -96.19312 | 23243 ft | 329 kts | 248° |
| 2026-05-06 22:04 | 33.45935 | -96.21840 | 22771 ft | 325 kts | 248° |
| 2026-05-06 22:04 | 33.45103 | -96.24341 | 22331 ft | 321 kts | 247° |
| 2026-05-06 22:04 | 33.44021 | -96.26662 | 21899 ft | 320 kts | 236° |
| 2026-05-06 22:05 | 33.42599 | -96.28715 | 21491 ft | 321 kts | 232° |
| 2026-05-06 22:05 | 33.41113 | -96.30730 | 21062 ft | 325 kts | 232° |
| 2026-05-06 22:05 | 33.39616 | -96.32750 | 20629 ft | 323 kts | 232° |
| 2026-05-06 22:05 | 33.38137 | -96.34756 | 20204 ft | 320 kts | 232° |
| 2026-05-06 22:06 | 33.36681 | -96.36748 | 19779 ft | 317 kts | 232° |
| 2026-05-06 22:06 | 33.35240 | -96.38727 | 19364 ft | 314 kts | 232° |
| 2026-05-06 22:06 | 33.33830 | -96.40665 | 18961 ft | 312 kts | 232° |
| 2026-05-06 22:06 | 33.32419 | -96.42607 | 18541 ft | 308 kts | 232° |
| 2026-05-06 22:07 | 33.31036 | -96.44542 | 18095 ft | 304 kts | 232° |
| 2026-05-06 22:07 | 33.29677 | -96.46452 | 17659 ft | 299 kts | 232° |
| 2026-05-06 22:07 | 33.28337 | -96.48333 | 17261 ft | 296 kts | 232° |
| 2026-05-06 22:07 | 33.27006 | -96.50189 | 16916 ft | 292 kts | 231° |
| 2026-05-06 22:08 | 33.25656 | -96.51986 | 16618 ft | 289 kts | 230° |
| 2026-05-06 22:08 | 33.24303 | -96.53760 | 16336 ft | 291 kts | 230° |
| 2026-05-06 22:08 | 33.22925 | -96.55568 | 16056 ft | 297 kts | 230° |
| 2026-05-06 22:08 | 33.21527 | -96.57408 | 15736 ft | 300 kts | 230° |
| 2026-05-06 22:09 | 33.20124 | -96.59256 | 15437 ft | 299 kts | 230° |
| 2026-05-06 22:09 | 33.18735 | -96.61085 | 15134 ft | 294 kts | 230° |
| 2026-05-06 22:09 | 33.17385 | -96.62882 | 14879 ft | 288 kts | 231° |
| 2026-05-06 22:09 | 33.16081 | -96.64667 | 14632 ft | 283 kts | 231° |
| 2026-05-06 22:10 | 33.14800 | -96.66432 | 14402 ft | 281 kts | 231° |
| 2026-05-06 22:10 | 33.13524 | -96.68189 | 14170 ft | 282 kts | 231° |
| 2026-05-06 22:10 | 33.12233 | -96.69965 | 13948 ft | 285 kts | 231° |
| 2026-05-06 22:10 | 33.10934 | -96.71748 | 13675 ft | 282 kts | 231° |
| 2026-05-06 22:11 | 33.09660 | -96.73491 | 13427 ft | 277 kts | 231° |
| 2026-05-06 22:11 | 33.08404 | -96.75207 | 13190 ft | 271 kts | 231° |
| 2026-05-06 22:11 | 33.07176 | -96.76883 | 12991 ft | 265 kts | 231° |
| 2026-05-06 22:11 | 33.05979 | -96.78508 | 12856 ft | 257 kts | 231° |
| 2026-05-06 22:12 | 33.04812 | -96.80093 | 12741 ft | 253 kts | 231° |
| 2026-05-06 22:12 | 33.03654 | -96.81662 | 12615 ft | 251 kts | 231° |
| 2026-05-06 22:12 | 33.02503 | -96.83220 | 12514 ft | 250 kts | 230° |
| 2026-05-06 22:12 | 33.01351 | -96.84778 | 12414 ft | 251 kts | 231° |
| 2026-05-06 22:13 | 33.00199 | -96.86338 | 12298 ft | 251 kts | 231° |
| 2026-05-06 22:13 | 32.99044 | -96.87901 | 12183 ft | 252 kts | 231° |
| 2026-05-06 22:13 | 32.97815 | -96.89387 | 12053 ft | 255 kts | 218° |
| 2026-05-06 22:13 | 32.96176 | -96.90283 | 11850 ft | 265 kts | 201° |
| 2026-05-06 22:14 | 32.94316 | -96.90595 | 11628 ft | 274 kts | 189° |
| 2026-05-06 22:14 | 32.92394 | -96.90718 | 11381 ft | 278 kts | 189° |
| 2026-05-06 22:14 | 32.90467 | -96.90828 | 11111 ft | 277 kts | 188° |
| 2026-05-06 22:14 | 32.88551 | -96.90943 | 10851 ft | 273 kts | 189° |
| 2026-05-06 22:15 | 32.86662 | -96.91068 | 10610 ft | 270 kts | 189° |
| 2026-05-06 22:15 | 32.84794 | -96.91199 | 10360 ft | 267 kts | 189° |
| 2026-05-06 22:15 | 32.82948 | -96.91332 | 10121 ft | 265 kts | 189° |
| 2026-05-06 22:15 | 32.81111 | -96.91466 | 9888 ft | 264 kts | 188° |
| 2026-05-06 22:16 | 32.79301 | -96.91591 | 9630 ft | 264 kts | 187° |
| 2026-05-06 22:16 | 32.77460 | -96.91617 | 9377 ft | 265 kts | 185° |
| 2026-05-06 22:16 | 32.75620 | -96.91607 | 9129 ft | 264 kts | 185° |
| 2026-05-06 22:16 | 32.73781 | -96.91595 | 8887 ft | 264 kts | 185° |
| 2026-05-06 22:17 | 32.71941 | -96.91585 | 8643 ft | 264 kts | 185° |
| 2026-05-06 22:17 | 32.70101 | -96.91579 | 8402 ft | 265 kts | 185° |
| 2026-05-06 22:17 | 32.68259 | -96.91576 | 8153 ft | 265 kts | 185° |
| 2026-05-06 22:17 | 32.66419 | -96.91574 | 7923 ft | 265 kts | 185° |
| 2026-05-06 22:18 | 32.64574 | -96.91573 | 7682 ft | 265 kts | 185° |
| 2026-05-06 22:18 | 32.62728 | -96.91573 | 7437 ft | 266 kts | 185° |
| 2026-05-06 22:18 | 32.60878 | -96.91572 | 7205 ft | 265 kts | 185° |
| 2026-05-06 22:18 | 32.59036 | -96.91589 | 6959 ft | 263 kts | 190° |
| 2026-05-06 22:19 | 32.57352 | -96.92249 | 6714 ft | 253 kts | 218° |
| 2026-05-06 22:19 | 32.56502 | -96.93197 | 6598 ft | 247 kts | 236° |
| 2026-05-06 22:19 | 32.55667 | -96.95647 | 6285 ft | 245 kts | 264° |
| 2026-05-06 22:19 | 32.55668 | -96.96982 | 6129 ft | 245 kts | 277° |
| 2026-05-06 22:20 | 32.56211 | -96.98894 | 5898 ft | 247 kts | 295° |
| 2026-05-06 22:20 | 32.57033 | -97.00680 | 5668 ft | 248 kts | 296° |
| 2026-05-06 22:20 | 32.57862 | -97.02472 | 5439 ft | 248 kts | 296° |
| 2026-05-06 22:20 | 32.58785 | -97.04189 | 5192 ft | 251 kts | 313° |
| 2026-05-06 22:21 | 32.60339 | -97.05133 | 4972 ft | 259 kts | 347° |
| 2026-05-06 22:21 | 32.62142 | -97.05319 | 4748 ft | 261 kts | 352° |
| 2026-05-06 22:21 | 32.63956 | -97.05471 | 4495 ft | 260 kts | 353° |
| 2026-05-06 22:21 | 32.65754 | -97.05571 | 4248 ft | 258 kts | 355° |
| 2026-05-06 22:22 | 32.67527 | -97.05593 | 4034 ft | 249 kts | 357° |
| 2026-05-06 22:22 | 32.69225 | -97.05584 | 3795 ft | 238 kts | 358° |
| 2026-05-06 22:22 | 32.70836 | -97.05572 | 3578 ft | 226 kts | 360° |
| 2026-05-06 22:22 | 32.72369 | -97.05564 | 3363 ft | 215 kts | 0° |
| 2026-05-06 22:23 | 32.73828 | -97.05557 | 3159 ft | 203 kts | 1° |
| 2026-05-06 22:23 | 32.75171 | -97.05551 | 3041 ft | 183 kts | 2° |
| 2026-05-06 22:23 | 32.76426 | -97.05544 | 2891 ft | 181 kts | 1° |
| 2026-05-06 22:23 | 32.77682 | -97.05537 | 2645 ft | 177 kts | 2° |
| 2026-05-06 22:24 | 32.78863 | -97.05531 | 2409 ft | 162 kts | 1° |
| 2026-05-06 22:24 | 32.79942 | -97.05526 | 2196 ft | 147 kts | 2° |
| 2026-05-06 22:24 | 32.80919 | -97.05520 | 2004 ft | 138 kts | 2° |
| 2026-05-06 22:24 | 32.81884 | -97.05514 | 1803 ft | 138 kts | 1° |
| 2026-05-06 22:25 | 32.82830 | -97.05510 | 1642 ft | 137 kts | 1° |
| 2026-05-06 22:25 | 32.83797 | -97.05503 | 1436 ft | 139 kts | 0° |
| 2026-05-06 22:25 | 32.84771 | -97.05493 | 1257 ft | 141 kts | 0° |
| 2026-05-06 22:25 | 32.85735 | -97.05496 | 1064 ft | 137 kts | 1° |
| 2026-05-06 22:26 | 32.86683 | -97.05490 | 882 ft | 137 kts | 2° |
| 2026-05-06 22:26 | 32.87652 | -97.05485 | 679 ft | 141 kts | 1° |
| 2026-05-06 22:26 | 32.88603 | -97.05480 | 596 ft | 128 kts | 1° |
| 2026-05-06 22:26 | 32.89338 | -97.05474 | 601 ft | 83 kts | 0° |
| 2026-05-06 22:27 | 32.89767 | -97.05467 | 610 ft | 39 kts | 7° |
| 2026-05-06 22:27 | 32.89920 | -97.05410 | 611 ft | 18 kts | 27° |
| 2026-05-06 22:27 | 32.90027 | -97.05338 | 603 ft | 17 kts | 30° |
| 2026-05-06 22:27 | 32.90114 | -97.05250 | 600 ft | 17 kts | 75° |
| 2026-05-06 22:28 | 32.90116 | -97.05113 | 598 ft | 16 kts | 90° |
| 2026-05-06 22:28 | 32.90116 | -97.04981 | 597 ft | 16 kts | 90° |
| 2026-05-06 22:28 | 32.90115 | -97.04855 | 598 ft | 15 kts | 90° |
| 2026-05-06 22:28 | 32.90097 | -97.04757 | 597 ft | 11 kts | 124° |
| 2026-05-06 22:29 | 32.90081 | -97.04665 | 597 ft | 12 kts | 89° |
| 2026-05-06 22:29 | 32.90081 | -97.04555 | 597 ft | 14 kts | 90° |
| 2026-05-06 22:29 | 32.90080 | -97.04445 | 597 ft | 13 kts | 90° |
| 2026-05-06 22:29 | 32.90074 | -97.04348 | 597 ft | 10 kts | 107° |
| 2026-05-06 22:30 | 32.90052 | -97.04270 | 598 ft | 9 kts | 110° |
| 2026-05-06 22:30 | 32.90039 | -97.04229 | 598 ft | 3 kts | 119° |
| 2026-05-06 22:30 | 32.90017 | -97.04221 | 598 ft | 3 kts | 181° |
| 2026-05-06 22:30 | 32.90000 | -97.04224 | 598 ft | 1 kts | 188° |
| 2026-05-06 22:31 | 32.89999 | -97.04224 | 598 ft | 0 kts | 188° |